createdAt,value
2022-10-25T00:00:18.680Z,995.66
2022-10-25T00:01:18.798Z,995.71
2022-10-25T00:02:18.746Z,995.64
2022-10-25T00:03:19.664Z,995.66
2022-10-25T00:04:18.701Z,995.72
2022-10-25T00:05:18.648Z,995.70
2022-10-25T00:06:18.635Z,995.73
2022-10-25T00:07:18.622Z,995.74
2022-10-25T00:08:18.616Z,995.76
2022-10-25T00:09:18.639Z,995.75
2022-10-25T00:10:21.102Z,995.73
2022-10-25T00:11:19.593Z,995.76
2022-10-25T00:12:18.589Z,995.72
2022-10-25T00:13:18.584Z,995.73
2022-10-25T00:14:18.628Z,995.81
2022-10-25T00:15:18.560Z,995.82
2022-10-25T00:16:18.550Z,995.74
2022-10-25T00:17:18.540Z,995.81
2022-10-25T00:18:18.542Z,995.74
2022-10-25T00:19:18.580Z,995.77
2022-10-25T00:20:18.513Z,995.77
2022-10-25T00:21:18.508Z,995.74
2022-10-25T00:22:18.503Z,995.82
2022-10-25T00:23:18.488Z,995.81
2022-10-25T00:24:18.483Z,995.84
2022-10-25T00:25:18.501Z,995.81
2022-10-25T00:26:18.464Z,995.83
2022-10-25T00:27:18.452Z,995.83
2022-10-25T00:28:18.444Z,995.79
2022-10-25T00:29:18.498Z,995.85
2022-10-25T00:30:18.457Z,995.78
2022-10-25T00:31:18.421Z,995.80
2022-10-25T00:32:18.413Z,995.77
2022-10-25T00:33:18.407Z,995.76
2022-10-25T00:34:18.395Z,995.76
2022-10-25T00:35:18.414Z,995.75
2022-10-25T00:36:18.383Z,995.80
2022-10-25T00:37:18.373Z,995.83
2022-10-25T00:38:18.362Z,995.80
2022-10-25T00:39:18.355Z,995.80
2022-10-25T00:40:18.376Z,995.87
2022-10-25T00:41:18.338Z,995.81
2022-10-25T00:42:18.333Z,995.82
2022-10-25T00:43:18.325Z,995.84
2022-10-25T00:44:18.314Z,995.87
2022-10-25T00:45:18.329Z,995.84
2022-10-25T00:46:18.299Z,995.81
2022-10-25T00:47:18.290Z,995.92
2022-10-25T00:48:18.282Z,995.91
2022-10-25T00:49:18.271Z,995.93
2022-10-25T00:50:18.284Z,995.94
2022-10-25T00:51:18.253Z,995.94
2022-10-25T00:52:18.235Z,995.90
2022-10-25T00:53:18.231Z,995.98
2022-10-25T00:54:18.290Z,995.99
2022-10-25T00:55:18.245Z,995.99
2022-10-25T00:56:18.209Z,996.03
2022-10-25T00:57:18.193Z,996.04
2022-10-25T00:58:18.193Z,995.99
2022-10-25T00:59:18.189Z,996.01
2022-10-25T01:00:18.214Z,996.01
2022-10-25T01:01:18.261Z,996.07
2022-10-25T01:02:18.232Z,996.04
2022-10-25T01:03:18.146Z,996.01
2022-10-25T01:04:18.142Z,996.03
2022-10-25T01:05:18.161Z,996.04
2022-10-25T01:06:18.145Z,996.03
2022-10-25T01:07:18.111Z,996.01
2022-10-25T01:08:18.106Z,996.07
2022-10-25T01:09:18.104Z,995.97
2022-10-25T01:10:18.118Z,995.98
2022-10-25T01:12:18.070Z,996.06
2022-10-25T01:13:18.064Z,995.96
2022-10-25T01:14:18.061Z,996.01
2022-10-25T01:15:18.079Z,996.01
2022-10-25T01:16:18.031Z,996.03
2022-10-25T01:17:18.028Z,995.95
2022-10-25T01:18:18.020Z,996.06
2022-10-25T01:19:18.008Z,996.01
2022-10-25T01:20:18.048Z,996.06
2022-10-25T01:21:17.989Z,996.10
2022-10-25T01:22:17.988Z,996.08
2022-10-25T01:23:17.975Z,996.14
2022-10-25T01:24:17.969Z,995.98
2022-10-25T01:25:17.989Z,996.06
2022-10-25T01:26:17.948Z,996.07
2022-10-25T01:27:17.940Z,996.09
2022-10-25T01:28:17.935Z,996.02
2022-10-25T01:29:17.921Z,995.98
2022-10-25T01:30:17.950Z,996.03
2022-10-25T01:31:17.910Z,996.01
2022-10-25T01:32:17.906Z,995.99
2022-10-25T01:33:17.894Z,995.98
2022-10-25T01:34:17.880Z,995.96
2022-10-25T01:35:17.905Z,995.97
2022-10-25T01:36:17.890Z,995.97
2022-10-25T01:37:17.861Z,995.98
2022-10-25T01:38:17.854Z,995.94
2022-10-25T01:39:17.843Z,995.90
2022-10-25T01:40:17.865Z,995.91
2022-10-25T01:41:17.827Z,995.86
2022-10-25T01:42:17.817Z,995.86
2022-10-25T01:43:17.806Z,995.84
2022-10-25T01:44:17.803Z,995.87
2022-10-25T01:45:17.819Z,995.85
2022-10-25T01:46:17.777Z,995.83
2022-10-25T01:47:17.783Z,995.85
2022-10-25T01:48:17.766Z,995.85
2022-10-25T01:49:17.756Z,995.86
2022-10-25T01:50:17.777Z,995.89
2022-10-25T01:51:17.737Z,995.88
2022-10-25T01:52:17.729Z,995.92
2022-10-25T01:53:17.725Z,995.87
2022-10-25T01:54:17.714Z,995.81
2022-10-25T01:55:17.742Z,995.84
2022-10-25T01:56:17.699Z,995.82
2022-10-25T01:57:36.685Z,995.91
2022-10-25T01:58:18.685Z,995.90
2022-10-25T01:59:17.677Z,995.87
2022-10-25T02:00:17.661Z,995.92
2022-10-25T02:01:17.882Z,995.91
2022-10-25T02:02:17.652Z,995.93
2022-10-25T02:03:17.634Z,995.91
2022-10-25T02:04:17.632Z,995.93
2022-10-25T02:05:17.626Z,995.98
2022-10-25T02:06:17.639Z,995.92
2022-10-25T02:07:17.609Z,995.97
2022-10-25T02:08:17.600Z,995.95
2022-10-25T02:09:17.593Z,996.01
2022-10-25T02:10:17.586Z,996.06
2022-10-25T02:11:17.606Z,996.07
2022-10-25T02:12:17.569Z,996.08
2022-10-25T02:13:17.555Z,996.07
2022-10-25T02:14:17.542Z,996.04
2022-10-25T02:15:17.542Z,996.11
2022-10-25T02:16:17.558Z,996.10
2022-10-25T02:17:17.527Z,996.21
2022-10-25T02:18:17.563Z,996.14
2022-10-25T02:19:17.503Z,996.17
2022-10-25T02:20:17.496Z,996.19
2022-10-25T02:21:17.522Z,996.16
2022-10-25T02:22:17.485Z,996.14
2022-10-25T02:23:17.466Z,996.20
2022-10-25T02:24:17.464Z,996.19
2022-10-25T02:25:17.472Z,996.19
2022-10-25T02:26:17.478Z,996.25
2022-10-25T02:27:17.431Z,996.20
2022-10-25T02:28:18.431Z,996.17
2022-10-25T02:29:17.433Z,996.21
2022-10-25T02:30:17.422Z,996.20
2022-10-25T02:31:17.432Z,996.23
2022-10-25T02:32:17.402Z,996.20
2022-10-25T02:33:17.400Z,996.19
2022-10-25T02:34:17.380Z,996.24
2022-10-25T02:35:17.383Z,996.19
2022-10-25T02:36:17.398Z,996.17
2022-10-25T02:37:17.353Z,996.21
2022-10-25T02:38:17.349Z,996.21
2022-10-25T02:39:17.335Z,996.19
2022-10-25T02:40:17.324Z,996.19
2022-10-25T02:41:17.349Z,996.21
2022-10-25T02:42:17.311Z,996.24
2022-10-25T02:43:17.319Z,996.26
2022-10-25T02:44:17.294Z,996.29
2022-10-25T02:45:17.297Z,996.25
2022-10-25T02:46:17.311Z,996.27
2022-10-25T02:47:17.272Z,996.29
2022-10-25T02:48:17.258Z,996.28
2022-10-25T02:49:17.256Z,996.27
2022-10-25T02:50:17.241Z,996.31
2022-10-25T02:51:17.261Z,996.28
2022-10-25T02:52:17.229Z,996.32
2022-10-25T02:53:17.215Z,996.34
2022-10-25T02:54:17.216Z,996.18
2022-10-25T02:55:17.203Z,996.24
2022-10-25T02:56:17.227Z,996.28
2022-10-25T02:57:17.184Z,996.26
2022-10-25T02:58:17.185Z,996.29
2022-10-25T02:59:17.175Z,996.24
2022-10-25T03:00:17.171Z,996.35
2022-10-25T03:01:17.296Z,996.26
2022-10-25T03:02:17.142Z,996.22
2022-10-25T03:03:17.134Z,996.22
2022-10-25T03:04:17.130Z,996.26
2022-10-25T03:05:17.118Z,996.26
2022-10-25T03:06:17.136Z,996.22
2022-10-25T03:07:17.115Z,996.18
2022-10-25T03:08:18.142Z,996.14
2022-10-25T03:09:17.082Z,996.28
2022-10-25T03:10:17.077Z,996.19
2022-10-25T03:11:17.089Z,996.24
2022-10-25T03:12:17.064Z,996.23
2022-10-25T03:13:17.049Z,996.26
2022-10-25T03:14:17.044Z,996.26
2022-10-25T03:15:17.035Z,996.28
2022-10-25T03:16:17.048Z,996.35
2022-10-25T03:17:17.016Z,996.30
2022-10-25T03:18:17.005Z,996.25
2022-10-25T03:19:17.005Z,996.28
2022-10-25T03:20:16.985Z,996.34
2022-10-25T03:21:17.008Z,996.38
2022-10-25T03:22:16.973Z,996.34
2022-10-25T03:23:16.957Z,996.46
2022-10-25T03:24:16.951Z,996.45
2022-10-25T03:25:16.943Z,996.41
2022-10-25T03:26:16.975Z,996.38
2022-10-25T03:27:16.934Z,996.41
2022-10-25T03:28:16.922Z,996.42
2022-10-25T03:29:16.918Z,996.44
2022-10-25T03:30:16.904Z,996.47
2022-10-25T03:31:16.902Z,996.49
2022-10-25T03:32:16.917Z,996.51
2022-10-25T03:33:16.913Z,996.49
2022-10-25T03:34:16.870Z,996.50
2022-10-25T03:35:16.861Z,996.57
2022-10-25T03:36:16.856Z,996.54
2022-10-25T03:37:16.871Z,996.51
2022-10-25T03:38:16.835Z,996.56
2022-10-25T03:39:16.836Z,996.58
2022-10-25T03:40:16.824Z,996.59
2022-10-25T03:41:16.829Z,996.55
2022-10-25T03:42:16.845Z,996.57
2022-10-25T03:43:16.878Z,996.61
2022-10-25T03:44:16.792Z,996.56
2022-10-25T03:45:16.784Z,996.55
2022-10-25T03:46:16.773Z,996.58
2022-10-25T03:47:16.793Z,996.60
2022-10-25T03:48:16.756Z,996.60
2022-10-25T03:49:16.747Z,996.66
2022-10-25T03:50:16.739Z,996.58
2022-10-25T03:51:16.736Z,996.61
2022-10-25T03:52:16.754Z,996.65
2022-10-25T03:53:16.715Z,996.66
2022-10-25T03:54:16.703Z,996.67
2022-10-25T03:55:16.695Z,996.75
2022-10-25T03:56:16.683Z,996.71
2022-10-25T03:57:16.708Z,996.63
2022-10-25T03:58:16.679Z,996.68
2022-10-25T03:59:16.663Z,996.71
2022-10-25T04:00:16.656Z,996.68
2022-10-25T04:01:16.831Z,996.68
2022-10-25T04:02:16.670Z,996.67
2022-10-25T04:03:16.633Z,996.71
2022-10-25T04:04:16.620Z,996.67
2022-10-25T04:05:16.611Z,996.71
2022-10-25T04:06:16.604Z,996.70
2022-10-25T04:07:16.626Z,996.77
2022-10-25T04:08:16.582Z,996.77
2022-10-25T04:09:16.585Z,996.74
2022-10-25T04:10:16.570Z,996.76
2022-10-25T04:11:16.559Z,996.80
2022-10-25T04:12:16.582Z,996.79
2022-10-25T04:13:16.543Z,996.79
2022-10-25T04:14:16.538Z,996.74
2022-10-25T04:15:16.532Z,996.72
2022-10-25T04:16:18.365Z,996.76
2022-10-25T04:17:16.533Z,996.70
2022-10-25T04:18:16.504Z,996.68
2022-10-25T04:19:16.493Z,996.67
2022-10-25T04:20:16.484Z,996.68
2022-10-25T04:21:16.474Z,996.68
2022-10-25T04:22:16.499Z,996.71
2022-10-25T04:23:16.450Z,996.69
2022-10-25T04:24:16.449Z,996.72
2022-10-25T04:25:16.438Z,996.76
2022-10-25T04:26:16.428Z,996.81
2022-10-25T04:27:16.456Z,996.78
2022-10-25T04:28:16.425Z,996.80
2022-10-25T04:29:16.403Z,996.78
2022-10-25T04:30:16.400Z,996.74
2022-10-25T04:31:16.386Z,996.80
2022-10-25T04:32:16.486Z,996.84
2022-10-25T04:33:16.369Z,996.84
2022-10-25T04:34:17.362Z,996.85
2022-10-25T04:35:16.356Z,996.90
2022-10-25T04:36:16.343Z,996.85
2022-10-25T04:37:16.373Z,996.88
2022-10-25T04:38:16.327Z,996.87
2022-10-25T04:39:17.319Z,996.86
2022-10-25T04:40:18.210Z,996.91
2022-10-25T04:41:16.302Z,996.87
2022-10-25T04:42:16.320Z,996.90
2022-10-25T04:43:16.344Z,996.92
2022-10-25T04:44:16.274Z,996.97
2022-10-25T04:45:16.264Z,996.99
2022-10-25T04:46:16.257Z,997.02
2022-10-25T04:47:16.283Z,997.00
2022-10-25T04:48:16.238Z,996.96
2022-10-25T04:49:16.231Z,996.94
2022-10-25T04:50:16.223Z,996.97
2022-10-25T04:51:16.217Z,996.96
2022-10-25T04:52:16.237Z,996.94
2022-10-25T04:53:16.198Z,996.88
2022-10-25T04:54:16.191Z,996.92
2022-10-25T04:55:16.180Z,996.94
2022-10-25T04:56:16.174Z,997.00
2022-10-25T04:57:16.195Z,996.93
2022-10-25T04:58:16.153Z,996.94
2022-10-25T04:59:16.151Z,996.92
2022-10-25T05:00:16.136Z,996.94
2022-10-25T05:01:16.162Z,996.96
2022-10-25T05:02:16.122Z,996.93
2022-10-25T05:03:16.168Z,996.90
2022-10-25T05:04:16.100Z,996.95
2022-10-25T05:05:16.096Z,996.99
2022-10-25T05:06:16.096Z,996.93
2022-10-25T05:07:16.079Z,997.02
2022-10-25T05:08:16.105Z,996.96
2022-10-25T05:09:16.068Z,996.98
2022-10-25T05:10:16.053Z,996.95
2022-10-25T05:11:16.057Z,997.04
2022-10-25T05:12:16.035Z,997.03
2022-10-25T05:13:16.057Z,997.03
2022-10-25T05:14:16.023Z,996.97
2022-10-25T05:15:16.008Z,996.97
2022-10-25T05:16:16.004Z,997.07
2022-10-25T05:17:15.997Z,997.07
2022-10-25T05:18:16.026Z,997.05
2022-10-25T05:19:15.983Z,997.12
2022-10-25T05:20:15.974Z,997.14
2022-10-25T05:21:16.019Z,997.08
2022-10-25T05:22:15.958Z,997.10
2022-10-25T05:23:15.968Z,997.12
2022-10-25T05:24:15.937Z,997.07
2022-10-25T05:25:15.928Z,997.07
2022-10-25T05:26:15.918Z,997.07
2022-10-25T05:27:15.914Z,997.02
2022-10-25T05:28:15.935Z,996.99
2022-10-25T05:29:15.897Z,997.07
2022-10-25T05:30:15.886Z,997.12
2022-10-25T05:31:16.015Z,997.09
2022-10-25T05:32:15.862Z,997.12
2022-10-25T05:33:15.888Z,997.10
2022-10-25T05:34:15.846Z,997.12
2022-10-25T05:35:15.840Z,997.16
2022-10-25T05:36:15.829Z,997.09
2022-10-25T05:37:15.831Z,997.06
2022-10-25T05:38:15.857Z,997.14
2022-10-25T05:39:15.808Z,997.17
2022-10-25T05:40:15.810Z,997.19
2022-10-25T05:41:15.799Z,997.25
2022-10-25T05:42:15.780Z,997.23
2022-10-25T05:43:15.808Z,997.22
2022-10-25T05:44:15.771Z,997.25
2022-10-25T05:45:15.762Z,997.25
2022-10-25T05:46:15.751Z,997.27
2022-10-25T05:47:15.742Z,997.27
2022-10-25T05:48:15.732Z,997.26
2022-10-25T05:49:15.761Z,997.27
2022-10-25T05:50:15.722Z,997.24
2022-10-25T05:51:28.955Z,997.30
2022-10-25T05:52:17.703Z,997.32
2022-10-25T05:53:15.690Z,997.30
2022-10-25T05:54:15.712Z,997.37
2022-10-25T05:55:15.676Z,997.23
2022-10-25T05:56:15.673Z,997.32
2022-10-25T05:57:15.663Z,997.29
2022-10-25T05:58:15.647Z,997.30
2022-10-25T05:59:15.670Z,997.26
2022-10-25T06:00:15.640Z,997.30
2022-10-25T06:01:15.691Z,997.23
2022-10-25T06:02:15.702Z,997.31
2022-10-25T06:03:15.609Z,997.28
2022-10-25T06:04:15.631Z,997.37
2022-10-25T06:05:15.606Z,997.35
2022-10-25T06:06:15.595Z,997.39
2022-10-25T06:07:15.571Z,997.40
2022-10-25T06:08:15.564Z,997.43
2022-10-25T06:09:15.598Z,997.45
2022-10-25T06:10:15.547Z,997.49
2022-10-25T06:11:15.548Z,997.49
2022-10-25T06:12:15.534Z,997.51
2022-10-25T06:13:15.523Z,997.51
2022-10-25T06:14:15.543Z,997.58
2022-10-25T06:15:15.501Z,997.51
2022-10-25T06:16:15.504Z,997.51
2022-10-25T06:17:15.483Z,997.57
2022-10-25T06:18:15.478Z,997.62
2022-10-25T06:19:15.501Z,997.56
2022-10-25T06:20:15.479Z,997.59
2022-10-25T06:21:15.466Z,997.62
2022-10-25T06:22:15.448Z,997.64
2022-10-25T06:23:15.438Z,997.63
2022-10-25T06:24:15.461Z,997.61
2022-10-25T06:25:15.443Z,997.64
2022-10-25T06:26:15.413Z,997.66
2022-10-25T06:27:15.430Z,997.70
2022-10-25T06:28:15.397Z,997.72
2022-10-25T06:29:15.420Z,997.77
2022-10-25T06:30:15.379Z,997.79
2022-10-25T06:31:15.372Z,997.78
2022-10-25T06:32:15.372Z,997.82
2022-10-25T06:33:15.361Z,997.83
2022-10-25T06:34:15.393Z,997.85
2022-10-25T06:35:15.336Z,997.87
2022-10-25T06:36:15.331Z,997.92
2022-10-25T06:37:15.330Z,997.91
2022-10-25T06:38:15.319Z,997.96
2022-10-25T06:39:15.343Z,997.95
2022-10-25T06:40:15.312Z,997.93
2022-10-25T06:41:15.288Z,998.00
2022-10-25T06:42:15.275Z,998.02
2022-10-25T06:43:15.263Z,998.02
2022-10-25T06:44:15.291Z,998.04
2022-10-25T06:45:15.257Z,998.07
2022-10-25T06:46:15.251Z,998.13
2022-10-25T06:47:17.658Z,998.01
2022-10-25T06:48:16.218Z,998.13
2022-10-25T06:49:15.254Z,998.13
2022-10-25T06:50:15.207Z,998.13
2022-10-25T06:51:15.199Z,998.21
2022-10-25T06:52:15.193Z,998.22
2022-10-25T06:53:15.189Z,998.18
2022-10-25T06:54:15.208Z,998.13
2022-10-25T06:55:15.157Z,998.15
2022-10-25T06:56:15.330Z,998.20
2022-10-25T06:57:15.144Z,998.19
2022-10-25T06:58:15.141Z,998.26
2022-10-25T06:59:15.128Z,998.24
2022-10-25T07:00:15.164Z,998.28
2022-10-25T07:01:15.237Z,998.27
2022-10-25T07:02:15.242Z,998.29
2022-10-25T07:03:15.092Z,998.29
2022-10-25T07:04:15.129Z,998.33
2022-10-25T07:05:15.078Z,998.33
2022-10-25T07:06:15.064Z,998.26
2022-10-25T07:07:15.065Z,998.22
2022-10-25T07:08:15.057Z,998.24
2022-10-25T07:09:15.071Z,998.25
2022-10-25T07:10:15.029Z,998.27
2022-10-25T07:11:15.024Z,998.31
2022-10-25T07:12:15.021Z,998.29
2022-10-25T07:13:15.010Z,998.33
2022-10-25T07:14:14.996Z,998.28
2022-10-25T07:15:15.070Z,998.32
2022-10-25T07:16:14.984Z,998.40
2022-10-25T07:17:14.974Z,998.35
2022-10-25T07:18:14.962Z,998.35
2022-10-25T07:19:14.987Z,998.33
2022-10-25T07:20:14.942Z,998.35
2022-10-25T07:21:14.940Z,998.38
2022-10-25T07:22:14.931Z,998.39
2022-10-25T07:23:14.928Z,998.41
2022-10-25T07:24:14.920Z,998.41
2022-10-25T07:25:14.954Z,998.44
2022-10-25T07:26:14.899Z,998.39
2022-10-25T07:27:14.888Z,998.45
2022-10-25T07:28:14.878Z,998.36
2022-10-25T07:29:15.090Z,998.32
2022-10-25T07:30:14.889Z,998.41
2022-10-25T07:31:14.851Z,998.35
2022-10-25T07:32:14.836Z,998.37
2022-10-25T07:33:14.830Z,998.38
2022-10-25T07:34:14.822Z,998.41
2022-10-25T07:35:14.854Z,998.39
2022-10-25T07:36:14.822Z,998.41
2022-10-25T07:37:14.799Z,998.47
2022-10-25T07:38:14.787Z,998.39
2022-10-25T07:39:14.778Z,998.40
2022-10-25T07:40:14.808Z,998.44
2022-10-25T07:41:14.766Z,998.45
2022-10-25T07:42:14.750Z,998.52
2022-10-25T07:43:14.737Z,998.49
2022-10-25T07:44:17.588Z,998.52
2022-10-25T07:45:18.685Z,998.48
2022-10-25T07:46:15.718Z,998.50
2022-10-25T07:47:14.708Z,998.47
2022-10-25T07:48:14.705Z,998.38
2022-10-25T07:49:14.694Z,998.37
2022-10-25T07:50:14.710Z,998.41
2022-10-25T07:51:14.691Z,998.44
2022-10-25T07:52:14.673Z,998.42
2022-10-25T07:53:14.660Z,998.46
2022-10-25T07:54:14.654Z,998.36
2022-10-25T07:55:14.685Z,998.39
2022-10-25T07:56:17.464Z,998.39
2022-10-25T07:57:15.628Z,998.45
2022-10-25T07:58:14.614Z,998.43
2022-10-25T07:59:14.611Z,998.38
2022-10-25T08:00:14.640Z,998.41
2022-10-25T08:01:14.614Z,998.52
2022-10-25T08:02:14.577Z,998.44
2022-10-25T08:03:14.686Z,998.53
2022-10-25T08:04:14.561Z,998.45
2022-10-25T08:05:14.562Z,998.45
2022-10-25T08:06:14.579Z,998.52
2022-10-25T08:07:14.546Z,998.57
2022-10-25T08:08:14.532Z,998.54
2022-10-25T08:09:33.121Z,998.51
2022-10-25T08:10:15.555Z,998.52
2022-10-25T08:11:14.519Z,998.55
2022-10-25T08:12:16.212Z,998.53
2022-10-25T08:13:14.483Z,998.56
2022-10-25T08:14:14.543Z,998.62
2022-10-25T08:15:14.485Z,998.60
2022-10-25T08:16:14.504Z,998.59
2022-10-25T08:17:14.454Z,998.60
2022-10-25T08:18:14.448Z,998.59
2022-10-25T08:19:14.443Z,998.66
2022-10-25T08:20:14.433Z,998.68
2022-10-25T08:21:14.451Z,998.59
2022-10-25T08:22:14.435Z,998.61
2022-10-25T08:23:14.421Z,998.60
2022-10-25T08:24:14.484Z,998.59
2022-10-25T08:25:14.393Z,998.61
2022-10-25T08:26:14.417Z,998.55
2022-10-25T08:27:14.376Z,998.58
2022-10-25T08:28:14.368Z,998.58
2022-10-25T08:29:14.349Z,998.58
2022-10-25T08:30:14.346Z,998.60
2022-10-25T08:31:14.431Z,998.56
2022-10-25T08:32:14.330Z,998.67
2022-10-25T08:33:14.325Z,998.67
2022-10-25T08:34:14.326Z,998.71
2022-10-25T08:35:14.316Z,998.69
2022-10-25T08:36:14.333Z,998.68
2022-10-25T08:37:14.297Z,998.70
2022-10-25T08:38:14.282Z,998.66
2022-10-25T08:39:14.270Z,998.72
2022-10-25T08:40:14.260Z,998.69
2022-10-25T08:41:14.283Z,998.71
2022-10-25T08:42:14.245Z,998.68
2022-10-25T08:43:14.243Z,998.65
2022-10-25T08:44:14.229Z,998.70
2022-10-25T08:45:14.215Z,998.63
2022-10-25T08:46:14.237Z,998.63
2022-10-25T08:47:14.201Z,998.73
2022-10-25T08:48:14.199Z,998.69
2022-10-25T08:49:14.181Z,998.69
2022-10-25T08:50:14.174Z,998.61
2022-10-25T08:51:14.208Z,998.63
2022-10-25T08:52:16.718Z,998.72
2022-10-25T08:53:15.152Z,998.68
2022-10-25T08:54:14.142Z,998.71
2022-10-25T08:55:14.131Z,998.67
2022-10-25T08:56:17.746Z,998.71
2022-10-25T08:57:16.293Z,998.79
2022-10-25T08:58:15.117Z,998.83
2022-10-25T08:59:14.100Z,998.82
2022-10-25T09:00:14.091Z,998.86
2022-10-25T09:01:14.229Z,998.84
2022-10-25T09:02:14.150Z,998.82
2022-10-25T09:03:15.387Z,998.83
2022-10-25T09:04:15.071Z,998.85
2022-10-25T09:05:14.047Z,998.87
2022-10-25T09:06:14.067Z,998.81
2022-10-25T09:07:14.063Z,998.86
2022-10-25T09:08:14.019Z,998.86
2022-10-25T09:09:14.015Z,998.90
2022-10-25T09:10:14.011Z,998.85
2022-10-25T09:11:14.030Z,998.97
2022-10-25T09:12:13.998Z,998.89
2022-10-25T09:13:14.000Z,998.89
2022-10-25T09:14:13.977Z,998.96
2022-10-25T09:15:13.968Z,998.90
2022-10-25T09:16:13.994Z,998.93
2022-10-25T09:17:13.956Z,998.93
2022-10-25T09:18:13.942Z,998.94
2022-10-25T09:19:13.998Z,998.95
2022-10-25T09:20:13.926Z,998.95
2022-10-25T09:21:17.519Z,998.98
2022-10-25T09:22:14.917Z,999.02
2022-10-25T09:23:13.930Z,998.86
2022-10-25T09:24:13.889Z,998.97
2022-10-25T09:25:13.897Z,998.93
2022-10-25T09:26:13.909Z,998.93
2022-10-25T09:27:13.877Z,998.94
2022-10-25T09:28:13.864Z,998.94
2022-10-25T09:29:13.854Z,998.95
2022-10-25T09:30:13.845Z,998.94
2022-10-25T09:31:13.864Z,998.93
2022-10-25T09:32:13.826Z,998.95
2022-10-25T09:33:13.915Z,998.94
2022-10-25T09:34:13.815Z,998.99
2022-10-25T09:35:13.804Z,999.00
2022-10-25T09:36:13.814Z,998.92
2022-10-25T09:37:13.795Z,999.00
2022-10-25T09:38:13.774Z,998.99
2022-10-25T09:39:15.951Z,998.96
2022-10-25T09:40:14.756Z,998.99
2022-10-25T09:41:13.778Z,998.98
2022-10-25T09:42:13.739Z,998.97
2022-10-25T09:43:13.735Z,999.00
2022-10-25T09:44:13.721Z,998.91
2022-10-25T09:45:13.712Z,998.97
2022-10-25T09:46:13.730Z,998.98
2022-10-25T09:47:13.701Z,999.04
2022-10-25T09:48:13.686Z,999.00
2022-10-25T09:49:13.678Z,999.02
2022-10-25T09:50:13.667Z,999.01
2022-10-25T09:51:13.694Z,999.02
2022-10-25T09:52:13.650Z,998.97
2022-10-25T09:53:14.258Z,999.08
2022-10-25T09:54:13.651Z,999.00
2022-10-25T09:55:13.627Z,998.99
2022-10-25T09:56:13.646Z,998.97
2022-10-25T09:57:13.635Z,999.01
2022-10-25T09:58:13.604Z,999.02
2022-10-25T09:59:13.600Z,999.00
2022-10-25T10:00:13.591Z,998.99
2022-10-25T10:01:13.690Z,999.02
2022-10-25T10:02:13.769Z,999.03
2022-10-25T10:03:13.568Z,998.98
2022-10-25T10:04:13.558Z,999.03
2022-10-25T10:05:13.542Z,999.04
2022-10-25T10:06:13.537Z,998.97
2022-10-25T10:07:13.563Z,998.98
2022-10-25T10:08:13.525Z,998.97
2022-10-25T10:09:13.516Z,998.97
2022-10-25T10:10:13.544Z,998.98
2022-10-25T10:11:13.506Z,998.95
2022-10-25T10:12:13.516Z,998.99
2022-10-25T10:13:13.489Z,998.99
2022-10-25T10:14:13.472Z,998.98
2022-10-25T10:15:13.467Z,998.99
2022-10-25T10:16:13.458Z,998.99
2022-10-25T10:17:13.483Z,998.96
2022-10-25T10:18:13.445Z,998.99
2022-10-25T10:19:13.431Z,998.99
2022-10-25T10:20:13.422Z,998.96
2022-10-25T10:21:13.410Z,998.98
2022-10-25T10:22:13.457Z,998.93
2022-10-25T10:23:13.395Z,999.00
2022-10-25T10:24:13.392Z,999.00
2022-10-25T10:25:13.381Z,998.95
2022-10-25T10:26:13.367Z,998.91
2022-10-25T10:27:13.395Z,998.94
2022-10-25T10:28:13.350Z,998.86
2022-10-25T10:29:17.560Z,998.93
2022-10-25T10:30:14.364Z,999.01
2022-10-25T10:31:13.326Z,998.87
2022-10-25T10:32:13.346Z,998.94
2022-10-25T10:33:13.314Z,998.91
2022-10-25T10:34:13.301Z,998.88
2022-10-25T10:35:13.295Z,999.00
2022-10-25T10:36:13.286Z,999.05
2022-10-25T10:37:13.312Z,998.93
2022-10-25T10:38:13.268Z,998.92
2022-10-25T10:39:13.258Z,998.95
2022-10-25T10:40:13.361Z,999.09
2022-10-25T10:41:13.241Z,998.97
2022-10-25T10:42:15.158Z,998.96
2022-10-25T10:43:14.228Z,998.92
2022-10-25T10:44:13.235Z,998.98
2022-10-25T10:45:13.209Z,998.89
2022-10-25T10:46:13.204Z,998.97
2022-10-25T10:47:14.217Z,998.99
2022-10-25T10:48:13.190Z,999.00
2022-10-25T10:49:13.178Z,998.98
2022-10-25T10:50:13.241Z,998.97
2022-10-25T10:51:25.506Z,999.01
2022-10-25T10:52:15.210Z,998.98
2022-10-25T10:53:13.146Z,999.00
2022-10-25T10:54:13.209Z,998.98
2022-10-25T10:55:13.122Z,998.99
2022-10-25T10:56:13.128Z,999.08
2022-10-25T10:57:13.136Z,999.02
2022-10-25T10:58:13.098Z,998.97
2022-10-25T10:59:13.089Z,999.06
2022-10-25T11:00:13.105Z,999.08
2022-10-25T11:01:13.176Z,999.08
2022-10-25T11:02:13.312Z,999.07
2022-10-25T11:03:13.057Z,999.11
2022-10-25T11:04:13.055Z,999.11
2022-10-25T11:05:13.040Z,999.08
2022-10-25T11:06:13.037Z,999.13
2022-10-25T11:07:13.057Z,999.12
2022-10-25T11:08:13.013Z,999.15
2022-10-25T11:09:13.061Z,999.09
2022-10-25T11:10:12.995Z,999.15
2022-10-25T11:11:12.989Z,999.11
2022-10-25T11:12:13.015Z,999.18
2022-10-25T11:13:13.043Z,999.21
2022-10-25T11:14:12.959Z,999.12
2022-10-25T11:15:12.954Z,999.18
2022-10-25T11:16:12.943Z,999.21
2022-10-25T11:17:12.941Z,999.19
2022-10-25T11:18:12.964Z,999.18
2022-10-25T11:19:12.922Z,999.17
2022-10-25T11:20:12.913Z,999.16
2022-10-25T11:21:12.895Z,999.21
2022-10-25T11:22:12.922Z,999.17
2022-10-25T11:23:12.902Z,999.18
2022-10-25T11:24:12.875Z,999.26
2022-10-25T11:25:12.865Z,999.26
2022-10-25T11:26:12.860Z,999.30
2022-10-25T11:27:12.863Z,999.23
2022-10-25T11:28:12.877Z,999.26
2022-10-25T11:29:12.907Z,999.27
2022-10-25T11:30:12.825Z,999.26
2022-10-25T11:31:12.823Z,999.22
2022-10-25T11:32:12.812Z,999.26
2022-10-25T11:33:12.838Z,999.17
2022-10-25T11:34:12.792Z,999.19
2022-10-25T11:35:12.782Z,999.19
2022-10-25T11:36:12.775Z,999.25
2022-10-25T11:37:12.766Z,999.27
2022-10-25T11:38:12.785Z,999.19
2022-10-25T11:39:12.748Z,999.18
2022-10-25T11:40:12.750Z,999.16
2022-10-25T11:41:12.733Z,999.16
2022-10-25T11:42:12.749Z,999.18
2022-10-25T11:43:12.745Z,999.19
2022-10-25T11:44:12.709Z,999.24
2022-10-25T11:45:12.765Z,999.24
2022-10-25T11:46:12.677Z,999.26
2022-10-25T11:47:13.682Z,999.19
2022-10-25T11:48:12.705Z,999.23
2022-10-25T11:49:12.658Z,999.17
2022-10-25T11:50:12.653Z,999.21
2022-10-25T11:51:12.660Z,999.24
2022-10-25T11:52:12.634Z,999.28
2022-10-25T11:53:12.659Z,999.29
2022-10-25T11:54:12.614Z,999.35
2022-10-25T11:55:12.613Z,999.22
2022-10-25T11:56:12.609Z,999.24
2022-10-25T11:57:12.607Z,999.28
2022-10-25T11:58:12.614Z,999.24
2022-10-25T11:59:12.580Z,999.22
2022-10-25T12:00:12.661Z,999.25
2022-10-25T12:01:12.730Z,999.30
2022-10-25T12:02:12.556Z,999.31
2022-10-25T12:03:12.618Z,999.25
2022-10-25T12:04:12.551Z,999.25
2022-10-25T12:05:12.524Z,999.21
2022-10-25T12:06:12.524Z,999.36
2022-10-25T12:07:12.516Z,999.29
2022-10-25T12:08:12.537Z,999.25
2022-10-25T12:09:12.493Z,999.31
2022-10-25T12:10:12.487Z,999.30
2022-10-25T12:11:15.003Z,999.31
2022-10-25T12:12:13.483Z,999.28
2022-10-25T12:13:12.503Z,999.27
2022-10-25T12:14:12.459Z,999.28
2022-10-25T12:15:12.458Z,999.30
2022-10-25T12:16:12.442Z,999.27
2022-10-25T12:17:12.502Z,999.34
2022-10-25T12:18:12.459Z,999.32
2022-10-25T12:19:12.418Z,999.29
2022-10-25T12:20:12.416Z,999.28
2022-10-25T12:21:12.402Z,999.31
2022-10-25T12:22:12.396Z,999.25
2022-10-25T12:23:12.413Z,999.25
2022-10-25T12:24:12.370Z,999.25
2022-10-25T12:25:12.373Z,999.26
2022-10-25T12:26:12.358Z,999.24
2022-10-25T12:27:12.354Z,999.22
2022-10-25T12:28:12.375Z,999.28
2022-10-25T12:29:12.345Z,999.24